sensor_id;sensor_type;location;lat;lon;timestamp;pressure;altitude;pressure_sealevel;temperature;humidity
7760;BME280;3924;48.830;9.262;2023-02-11T00:01:32;100676.53;;;-1.11;73.87
7760;BME280;3924;48.830;9.262;2023-02-11T00:03:59;100677.22;;;-1.09;73.82
7760;BME280;3924;48.830;9.262;2023-02-11T00:06:27;100672.38;;;-1.14;74.13
7760;BME280;3924;48.830;9.262;2023-02-11T00:08:54;100678.03;;;-1.17;74.01
7760;BME280;3924;48.830;9.262;2023-02-11T00:11:22;100674.69;;;-1.19;73.99
7760;BME280;3924;48.830;9.262;2023-02-11T00:13:50;100668.53;;;-1.19;74.00
7760;BME280;3924;48.830;9.262;2023-02-11T00:16:19;100672.03;;;-1.19;74.04
7760;BME280;3924;48.830;9.262;2023-02-11T00:18:46;100675.84;;;-1.21;74.20
7760;BME280;3924;48.830;9.262;2023-02-11T00:21:18;100668.03;;;-1.23;74.13
7760;BME280;3924;48.830;9.262;2023-02-11T00:23:46;100662.88;;;-1.24;74.24
7760;BME280;3924;48.830;9.262;2023-02-11T00:26:18;100670.03;;;-1.25;74.39
7760;BME280;3924;48.830;9.262;2023-02-11T00:28:45;100674.50;;;-1.25;74.31
7760;BME280;3924;48.830;9.262;2023-02-11T00:31:13;100671.00;;;-1.26;74.55
7760;BME280;3924;48.830;9.262;2023-02-11T00:33:40;100660.53;;;-1.27;74.41
7760;BME280;3924;48.830;9.262;2023-02-11T00:36:11;100655.22;;;-1.27;74.47
7760;BME280;3924;48.830;9.262;2023-02-11T00:38:38;100651.06;;;-1.30;74.19
7760;BME280;3924;48.830;9.262;2023-02-11T00:41:05;100664.84;;;-1.34;74.85
7760;BME280;3924;48.830;9.262;2023-02-11T00:43:31;100659.53;;;-1.34;74.63
7760;BME280;3924;48.830;9.262;2023-02-11T00:45:58;100657.03;;;-1.36;74.85
7760;BME280;3924;48.830;9.262;2023-02-11T00:48:25;100652.72;;;-1.37;74.77
7760;BME280;3924;48.830;9.262;2023-02-11T00:50:51;100655.53;;;-1.39;74.72
7760;BME280;3924;48.830;9.262;2023-02-11T00:53:17;100653.69;;;-1.38;74.85
7760;BME280;3924;48.830;9.262;2023-02-11T00:55:44;100669.16;;;-1.42;74.73
7760;BME280;3924;48.830;9.262;2023-02-11T00:58:10;100673.66;;;-1.42;74.55
7760;BME280;3924;48.830;9.262;2023-02-11T01:00:37;100650.84;;;-1.45;74.65
7760;BME280;3924;48.830;9.262;2023-02-11T01:03:03;100665.97;;;-1.45;74.85
7760;BME280;3924;48.830;9.262;2023-02-11T01:05:30;100655.50;;;-1.47;74.77
7760;BME280;3924;48.830;9.262;2023-02-11T01:07:57;100657.50;;;-1.49;74.69
7760;BME280;3924;48.830;9.262;2023-02-11T01:10:24;100637.91;;;-1.48;75.07
7760;BME280;3924;48.830;9.262;2023-02-11T01:12:50;100634.22;;;-1.47;75.05
7760;BME280;3924;48.830;9.262;2023-02-11T01:15:18;100632.56;;;-1.48;74.78
7760;BME280;3924;48.830;9.262;2023-02-11T01:17:45;100621.28;;;-1.50;75.03
7760;BME280;3924;48.830;9.262;2023-02-11T01:20:19;100612.47;;;-1.50;75.33
7760;BME280;3924;48.830;9.262;2023-02-11T01:22:46;100619.44;;;-1.49;74.68
7760;BME280;3924;48.830;9.262;2023-02-11T01:25:13;100613.31;;;-1.50;75.26
7760;BME280;3924;48.830;9.262;2023-02-11T01:27:39;100613.78;;;-1.46;75.12
7760;BME280;3924;48.830;9.262;2023-02-11T01:30:07;100607.63;;;-1.47;75.04
7760;BME280;3924;48.830;9.262;2023-02-11T01:32:34;100604.97;;;-1.47;75.27
7760;BME280;3924;48.830;9.262;2023-02-11T01:35:01;100594.81;;;-1.51;74.96
7760;BME280;3924;48.830;9.262;2023-02-11T01:37:28;100601.31;;;-1.54;75.17
7760;BME280;3924;48.830;9.262;2023-02-11T01:39:54;100613.94;;;-1.56;75.37
7760;BME280;3924;48.830;9.262;2023-02-11T01:42:22;100607.28;;;-1.60;75.43
7760;BME280;3924;48.830;9.262;2023-02-11T01:44:49;100615.91;;;-1.58;75.55
7760;BME280;3924;48.830;9.262;2023-02-11T01:47:17;100604.44;;;-1.58;75.45
7760;BME280;3924;48.830;9.262;2023-02-11T01:49:54;100612.28;;;-1.57;75.52
7760;BME280;3924;48.830;9.262;2023-02-11T01:52:29;100615.91;;;-1.58;75.37
7760;BME280;3924;48.830;9.262;2023-02-11T01:55:06;100608.63;;;-1.56;75.35
7760;BME280;3924;48.830;9.262;2023-02-11T01:57:55;100612.78;;;-1.53;75.32
7760;BME280;3924;48.830;9.262;2023-02-11T02:00:38;100612.94;;;-1.55;75.63
7760;BME280;3924;48.830;9.262;2023-02-11T02:03:12;100609.13;;;-1.52;75.74
7760;BME280;3924;48.830;9.262;2023-02-11T02:06:06;100604.31;;;-1.49;75.59
7760;BME280;3924;48.830;9.262;2023-02-11T02:11:15;100596.00;;;-1.54;75.38
7760;BME280;3924;48.830;9.262;2023-02-11T02:13:42;100591.00;;;-1.57;75.60
7760;BME280;3924;48.830;9.262;2023-02-11T02:16:14;100591.97;;;-1.58;75.61
7760;BME280;3924;48.830;9.262;2023-02-11T02:24:46;100589.31;;;-1.58;75.50
7760;BME280;3924;48.830;9.262;2023-02-11T02:27:34;100587.66;;;-1.59;75.44
7760;BME280;3924;48.830;9.262;2023-02-11T02:33:35;100583.69;;;-1.55;75.41
7760;BME280;3924;48.830;9.262;2023-02-11T02:38:37;100579.22;;;-1.54;75.49
7760;BME280;3924;48.830;9.262;2023-02-11T02:41:13;100579.72;;;-1.51;75.34
7760;BME280;3924;48.830;9.262;2023-02-11T02:43:43;100570.25;;;-1.45;75.50
7760;BME280;3924;48.830;9.262;2023-02-11T02:48:48;100550.47;;;-1.43;75.31
7760;BME280;3924;48.830;9.262;2023-02-11T02:54:12;100543.16;;;-1.41;75.38
7760;BME280;3924;48.830;9.262;2023-02-11T02:59:43;100553.28;;;-1.44;75.55
7760;BME280;3924;48.830;9.262;2023-02-11T03:02:24;100552.44;;;-1.45;75.71
7760;BME280;3924;48.830;9.262;2023-02-11T03:10:02;100542.16;;;-1.48;75.58
7760;BME280;3924;48.830;9.262;2023-02-11T03:12:33;100541.16;;;-1.47;75.71
7760;BME280;3924;48.830;9.262;2023-02-11T03:15:02;100534.19;;;-1.48;75.91
7760;BME280;3924;48.830;9.262;2023-02-11T03:17:33;100541.63;;;-1.51;75.86
7760;BME280;3924;48.830;9.262;2023-02-11T03:20:03;100535.50;;;-1.52;75.89
7760;BME280;3924;48.830;9.262;2023-02-11T03:22:36;100537.19;;;-1.51;76.04
7760;BME280;3924;48.830;9.262;2023-02-11T03:25:04;100524.72;;;-1.50;75.94
7760;BME280;3924;48.830;9.262;2023-02-11T03:27:38;100522.19;;;-1.52;75.94
7760;BME280;3924;48.830;9.262;2023-02-11T03:30:17;100523.19;;;-1.53;75.88
7760;BME280;3924;48.830;9.262;2023-02-11T03:32:59;100521.22;;;-1.51;76.07
7760;BME280;3924;48.830;9.262;2023-02-11T03:35:34;100529.19;;;-1.51;76.01
7760;BME280;3924;48.830;9.262;2023-02-11T03:38:07;100530.16;;;-1.52;76.03
7760;BME280;3924;48.830;9.262;2023-02-11T03:40:39;100521.88;;;-1.49;75.93
7760;BME280;3924;48.830;9.262;2023-02-11T03:43:10;100530.34;;;-1.45;76.12
7760;BME280;3924;48.830;9.262;2023-02-11T03:45:38;100535.34;;;-1.42;75.92
7760;BME280;3924;48.830;9.262;2023-02-11T03:48:15;100541.97;;;-1.38;75.84
7760;BME280;3924;48.830;9.262;2023-02-11T03:50:45;100528.19;;;-1.33;75.65
7760;BME280;3924;48.830;9.262;2023-02-11T03:53:14;100529.53;;;-1.29;75.81
7760;BME280;3924;48.830;9.262;2023-02-11T03:55:41;100537.16;;;-1.26;75.68
7760;BME280;3924;48.830;9.262;2023-02-11T03:58:09;100541.16;;;-1.22;75.54
7760;BME280;3924;48.830;9.262;2023-02-11T04:00:37;100534.19;;;-1.23;75.64
7760;BME280;3924;48.830;9.262;2023-02-11T04:03:06;100535.16;;;-1.24;75.72
7760;BME280;3924;48.830;9.262;2023-02-11T04:05:32;100539.00;;;-1.27;75.78
7760;BME280;3924;48.830;9.262;2023-02-11T04:07:59;100547.50;;;-1.23;75.71
7760;BME280;3924;48.830;9.262;2023-02-11T04:10:26;100546.16;;;-1.19;75.77
7760;BME280;3924;48.830;9.262;2023-02-11T04:12:52;100550.31;;;-1.17;75.74
7760;BME280;3924;48.830;9.262;2023-02-11T04:15:19;100543.16;;;-1.16;75.63
7760;BME280;3924;48.830;9.262;2023-02-11T04:17:45;100552.63;;;-1.14;75.30
7760;BME280;3924;48.830;9.262;2023-02-11T04:20:12;100562.94;;;-1.11;75.62
7760;BME280;3924;48.830;9.262;2023-02-11T04:22:38;100557.28;;;-1.07;75.50
7760;BME280;3924;48.830;9.262;2023-02-11T04:25:05;100557.47;;;-1.09;75.47
7760;BME280;3924;48.830;9.262;2023-02-11T04:27:32;100561.09;;;-1.10;75.88
7760;BME280;3924;48.830;9.262;2023-02-11T04:29:58;100554.63;;;-1.07;75.85
7760;BME280;3924;48.830;9.262;2023-02-11T04:32:25;100560.44;;;-1.04;75.87
7760;BME280;3924;48.830;9.262;2023-02-11T04:34:51;100554.28;;;-1.04;75.82
7760;BME280;3924;48.830;9.262;2023-02-11T04:37:19;100560.44;;;-1.04;75.75
7760;BME280;3924;48.830;9.262;2023-02-11T04:39:46;100560.13;;;-1.01;75.73
7760;BME280;3924;48.830;9.262;2023-02-11T04:42:15;100549.13;;;-0.98;75.83
7760;BME280;3924;48.830;9.262;2023-02-11T04:44:42;100554.78;;;-0.93;75.34
7760;BME280;3924;48.830;9.262;2023-02-11T04:47:08;100546.44;;;-0.90;75.62
7760;BME280;3924;48.830;9.262;2023-02-11T04:49:35;100536.47;;;-0.88;75.67
7760;BME280;3924;48.830;9.262;2023-02-11T04:52:01;100533.47;;;-0.85;75.65
7760;BME280;3924;48.830;9.262;2023-02-11T04:54:27;100531.81;;;-0.86;75.71
7760;BME280;3924;48.830;9.262;2023-02-11T04:56:54;100533.47;;;-0.85;75.55
7760;BME280;3924;48.830;9.262;2023-02-11T04:59:20;100535.94;;;-0.83;75.68
7760;BME280;3924;48.830;9.262;2023-02-11T05:01:47;100536.63;;;-0.81;75.80
7760;BME280;3924;48.830;9.262;2023-02-11T05:04:15;100536.44;;;-0.79;75.37
7760;BME280;3924;48.830;9.262;2023-02-11T05:06:42;100543.44;;;-0.78;75.46
7760;BME280;3924;48.830;9.262;2023-02-11T05:09:10;100523.78;;;-0.77;75.61
7760;BME280;3924;48.830;9.262;2023-02-11T05:11:37;100526.44;;;-0.77;75.49
7760;BME280;3924;48.830;9.262;2023-02-11T05:14:05;100512.81;;;-0.74;75.56
7760;BME280;3924;48.830;9.262;2023-02-11T05:16:32;100506.50;;;-0.73;75.48
7760;BME280;3924;48.830;9.262;2023-02-11T05:18:59;100492.16;;;-0.72;75.71
7760;BME280;3924;48.830;9.262;2023-02-11T05:21:25;100480.88;;;-0.74;75.55
7760;BME280;3924;48.830;9.262;2023-02-11T05:23:52;100480.50;;;-0.71;75.93
7760;BME280;3924;48.830;9.262;2023-02-11T05:26:18;100479.69;;;-0.72;75.45
7760;BME280;3924;48.830;9.262;2023-02-11T05:28:45;100484.66;;;-0.69;75.63
7760;BME280;3924;48.830;9.262;2023-02-11T05:31:11;100483.69;;;-0.68;75.57
7760;BME280;3924;48.830;9.262;2023-02-11T05:33:40;100470.19;;;-0.66;75.96
7760;BME280;3924;48.830;9.262;2023-02-11T05:36:09;100476.50;;;-0.67;75.29
7760;BME280;3924;48.830;9.262;2023-02-11T05:38:36;100484.66;;;-0.69;75.72
7760;BME280;3924;48.830;9.262;2023-02-11T05:41:04;100483.81;;;-0.69;75.71
7760;BME280;3924;48.830;9.262;2023-02-11T05:43:31;100482.00;;;-0.69;75.65
7760;BME280;3924;48.830;9.262;2023-02-11T05:46:00;100483.50;;;-0.66;75.59
7760;BME280;3924;48.830;9.262;2023-02-11T05:48:26;100482.50;;;-0.65;75.75
7760;BME280;3924;48.830;9.262;2023-02-11T05:50:53;100482.13;;;-0.62;75.82
7760;BME280;3924;48.830;9.262;2023-02-11T05:53:19;100478.81;;;-0.64;75.93
7760;BME280;3924;48.830;9.262;2023-02-11T05:55:46;100478.63;;;-0.63;75.77
7760;BME280;3924;48.830;9.262;2023-02-11T05:58:12;100475.16;;;-0.63;75.76
7760;BME280;3924;48.830;9.262;2023-02-11T06:00:39;100484.78;;;-0.62;76.01
7760;BME280;3924;48.830;9.262;2023-02-11T06:03:05;100491.81;;;-0.61;75.75
7760;BME280;3924;48.830;9.262;2023-02-11T06:05:32;100492.63;;;-0.61;75.77
7760;BME280;3924;48.830;9.262;2023-02-11T06:07:58;100502.09;;;-0.58;75.75
7760;BME280;3924;48.830;9.262;2023-02-11T06:10:25;100498.63;;;-0.59;75.80
7760;BME280;3924;48.830;9.262;2023-02-11T06:12:52;100509.09;;;-0.57;76.09
7760;BME280;3924;48.830;9.262;2023-02-11T06:15:18;100515.25;;;-0.57;75.78
7760;BME280;3924;48.830;9.262;2023-02-11T06:17:45;100515.91;;;-0.54;76.04
7760;BME280;3924;48.830;9.262;2023-02-11T06:20:11;100505.91;;;-0.52;75.90
7760;BME280;3924;48.830;9.262;2023-02-11T06:22:38;100506.38;;;-0.49;75.96
7760;BME280;3924;48.830;9.262;2023-02-11T06:25:04;100506.06;;;-0.46;75.98
7760;BME280;3924;48.830;9.262;2023-02-11T06:27:31;100504.03;;;-0.44;75.99
7760;BME280;3924;48.830;9.262;2023-02-11T06:29:57;100503.03;;;-0.43;75.93
7760;BME280;3924;48.830;9.262;2023-02-11T06:32:26;100502.03;;;-0.42;75.72
7760;BME280;3924;48.830;9.262;2023-02-11T06:35:11;100504.53;;;-0.40;75.85
7760;BME280;3924;48.830;9.262;2023-02-11T06:37:39;100500.03;;;-0.40;75.94
7760;BME280;3924;48.830;9.262;2023-02-11T06:40:06;100491.88;;;-0.38;76.06
7760;BME280;3924;48.830;9.262;2023-02-11T06:42:33;100499.69;;;-0.37;75.96
7760;BME280;3924;48.830;9.262;2023-02-11T06:45:01;100499.34;;;-0.34;76.13
7760;BME280;3924;48.830;9.262;2023-02-11T06:47:28;100510.47;;;-0.30;76.15
7760;BME280;3924;48.830;9.262;2023-02-11T06:49:54;100507.63;;;-0.29;75.96
7760;BME280;3924;48.830;9.262;2023-02-11T06:52:20;100507.31;;;-0.25;75.95
7760;BME280;3924;48.830;9.262;2023-02-11T06:54:47;100517.59;;;-0.22;76.09
7760;BME280;3924;48.830;9.262;2023-02-11T06:57:13;100517.28;;;-0.19;76.01
7760;BME280;3924;48.830;9.262;2023-02-11T06:59:40;100514.59;;;-0.19;75.98
7760;BME280;3924;48.830;9.262;2023-02-11T07:02:08;100514.88;;;-0.14;75.95
7760;BME280;3924;48.830;9.262;2023-02-11T07:04:35;100514.56;;;-0.11;75.91
7760;BME280;3924;48.830;9.262;2023-02-11T07:07:02;100514.19;;;-0.08;75.91
7760;BME280;3924;48.830;9.262;2023-02-11T07:09:28;100507.69;;;-0.06;76.05
7760;BME280;3924;48.830;9.262;2023-02-11T07:11:55;100512.22;;;-0.06;76.16
7760;BME280;3924;48.830;9.262;2023-02-11T07:14:22;100515.69;;;-0.06;75.83
7760;BME280;3924;48.830;9.262;2023-02-11T07:16:48;100520.03;;;-0.05;75.87
7760;BME280;3924;48.830;9.262;2023-02-11T07:19:15;100515.16;;;-0.01;75.72
7760;BME280;3924;48.830;9.262;2023-02-11T07:21:42;100514.81;;;0.02;75.80
7760;BME280;3924;48.830;9.262;2023-02-11T07:24:09;100510.97;;;0.05;75.82
7760;BME280;3924;48.830;9.262;2023-02-11T07:26:36;100506.47;;;0.05;75.68
7760;BME280;3924;48.830;9.262;2023-02-11T07:29:03;100495.59;;;0.07;75.84
7760;BME280;3924;48.830;9.262;2023-02-11T07:31:29;100514.75;;;0.10;75.94
7760;BME280;3924;48.830;9.262;2023-02-11T07:33:58;100515.41;;;0.12;75.87
7760;BME280;3924;48.830;9.262;2023-02-11T07:36:26;100519.59;;;0.15;75.86
7760;BME280;3924;48.830;9.262;2023-02-11T07:38:53;100515.53;;;0.19;76.04
7760;BME280;3924;48.830;9.262;2023-02-11T07:41:24;100523.03;;;0.23;75.63
7760;BME280;3924;48.830;9.262;2023-02-11T07:43:54;100523.31;;;0.29;75.86
7760;BME280;3924;48.830;9.262;2023-02-11T07:46:27;100510.13;;;0.35;75.86
7760;BME280;3924;48.830;9.262;2023-02-11T07:48:55;100507.56;;;0.42;75.67
7760;BME280;3924;48.830;9.262;2023-02-11T07:51:28;100508.50;;;0.49;75.43
7760;BME280;3924;48.830;9.262;2023-02-11T07:54:03;100506.59;;;0.58;75.25
7760;BME280;3924;48.830;9.262;2023-02-11T07:56:30;100504.69;;;0.66;75.30
7760;BME280;3924;48.830;9.262;2023-02-11T07:59:02;100493.94;;;0.74;75.06
7760;BME280;3924;48.830;9.262;2023-02-11T08:01:29;100486.84;;;0.81;75.14
7760;BME280;3924;48.830;9.262;2023-02-11T08:03:57;100495.63;;;0.90;74.94
7760;BME280;3924;48.830;9.262;2023-02-11T08:06:26;100485.22;;;0.95;74.90
7760;BME280;3924;48.830;9.262;2023-02-11T08:08:53;100488.66;;;1.04;74.82
7760;BME280;3924;48.830;9.262;2023-02-11T08:11:22;100485.41;;;1.08;74.82
7760;BME280;3924;48.830;9.262;2023-02-11T08:13:50;100487.19;;;1.16;74.92
7760;BME280;3924;48.830;9.262;2023-02-11T08:16:23;100500.63;;;1.23;74.84
7760;BME280;3924;48.830;9.262;2023-02-11T08:18:51;100496.41;;;1.28;74.67
7760;BME280;3924;48.830;9.262;2023-02-11T08:21:19;100507.56;;;1.32;74.60
7760;BME280;3924;48.830;9.262;2023-02-11T08:23:50;100506.34;;;1.34;74.74
7760;BME280;3924;48.830;9.262;2023-02-11T08:26:20;100514.84;;;1.38;74.38
7760;BME280;3924;48.830;9.262;2023-02-11T08:28:48;100520.63;;;1.42;74.49
7760;BME280;3924;48.830;9.262;2023-02-11T08:31:27;100521.25;;;1.44;74.50
7760;BME280;3924;48.830;9.262;2023-02-11T08:33:59;100521.25;;;1.44;74.44
7760;BME280;3924;48.830;9.262;2023-02-11T08:36:41;100520.63;;;1.42;74.51
7760;BME280;3924;48.830;9.262;2023-02-11T08:39:16;100511.59;;;1.43;74.49
7760;BME280;3924;48.830;9.262;2023-02-11T08:41:48;100511.50;;;1.51;74.52
7760;BME280;3924;48.830;9.262;2023-02-11T08:44:17;100505.25;;;1.58;74.43
7760;BME280;3924;48.830;9.262;2023-02-11T08:46:43;100503.28;;;1.67;74.32
7760;BME280;3924;48.830;9.262;2023-02-11T08:49:10;100494.34;;;1.75;74.26
7760;BME280;3924;48.830;9.262;2023-02-11T08:51:37;100493.59;;;1.81;74.17
7760;BME280;3924;48.830;9.262;2023-02-11T08:54:03;100489.34;;;1.86;74.12
7760;BME280;3924;48.830;9.262;2023-02-11T08:56:31;100485.72;;;1.94;74.14
7760;BME280;3924;48.830;9.262;2023-02-11T08:58:58;100487.47;;;2.02;73.89
7760;BME280;3924;48.830;9.262;2023-02-11T09:01:28;100496.38;;;2.09;73.61
7760;BME280;3924;48.830;9.262;2023-02-11T09:03:55;100497.91;;;2.18;73.89
7760;BME280;3924;48.830;9.262;2023-02-11T09:06:23;100517.19;;;2.28;73.70
7760;BME280;3924;48.830;9.262;2023-02-11T09:08:52;100517.06;;;2.36;73.52
7760;BME280;3924;48.830;9.262;2023-02-11T09:11:21;100512.59;;;2.43;73.43
7760;BME280;3924;48.830;9.262;2023-02-11T09:13:50;100509.50;;;2.46;73.41
7760;BME280;3924;48.830;9.262;2023-02-11T09:16:22;100496.78;;;2.49;73.31
7760;BME280;3924;48.830;9.262;2023-02-11T09:18:50;100498.03;;;2.53;73.33
7760;BME280;3924;48.830;9.262;2023-02-11T09:21:18;100489.66;;;2.56;73.48
7760;BME280;3924;48.830;9.262;2023-02-11T09:23:45;100487.78;;;2.56;73.30
7760;BME280;3924;48.830;9.262;2023-02-11T09:28:39;100477.78;;;2.65;73.22
7760;BME280;3924;48.830;9.262;2023-02-11T09:31:07;100477.63;;;2.73;73.21
7760;BME280;3924;48.830;9.262;2023-02-11T09:33:36;100474.19;;;2.79;72.96
7760;BME280;3924;48.830;9.262;2023-02-11T09:36:04;100473.44;;;2.92;72.74
7760;BME280;3924;48.830;9.262;2023-02-11T09:38:31;100474.78;;;3.03;72.77
7760;BME280;3924;48.830;9.262;2023-02-11T09:40:58;100473.59;;;3.12;72.45
7760;BME280;3924;48.830;9.262;2023-02-11T09:43:43;100475.28;;;3.19;72.41
7760;BME280;3924;48.830;9.262;2023-02-11T09:46:14;100483.81;;;3.29;72.15
7760;BME280;3924;48.830;9.262;2023-02-11T09:48:43;100489.44;;;3.41;72.23
7760;BME280;3924;48.830;9.262;2023-02-11T09:51:43;100488.25;;;3.50;71.93
7760;BME280;3924;48.830;9.262;2023-02-11T09:54:19;100500.25;;;3.61;71.65
7760;BME280;3924;48.830;9.262;2023-02-11T09:56:48;100503.22;;;3.73;71.59
7760;BME280;3924;48.830;9.262;2023-02-11T09:59:15;100501.78;;;3.83;71.24
7760;BME280;3924;48.830;9.262;2023-02-11T10:01:46;100501.19;;;3.88;71.23
7760;BME280;3924;48.830;9.262;2023-02-11T10:04:38;100506.00;;;3.99;71.02
7760;BME280;3924;48.830;9.262;2023-02-11T10:12:40;100502.56;;;4.38;70.68
7760;BME280;3924;48.830;9.262;2023-02-11T10:15:31;100504.66;;;4.50;70.06
7760;BME280;3924;48.830;9.262;2023-02-11T10:21:31;100498.72;;;4.68;69.75
7760;BME280;3924;48.830;9.262;2023-02-11T10:24:03;100505.72;;;4.82;69.75
7760;BME280;3924;48.830;9.262;2023-02-11T10:26:37;100512.97;;;4.88;69.39
7760;BME280;3924;48.830;9.262;2023-02-11T10:29:18;100506.94;;;4.99;69.00
7760;BME280;3924;48.830;9.262;2023-02-11T10:31:47;100503.03;;;5.15;68.97
7760;BME280;3924;48.830;9.262;2023-02-11T10:34:14;100495.13;;;5.27;68.69
7760;BME280;3924;48.830;9.262;2023-02-11T10:36:43;100498.41;;;5.42;68.66
7760;BME280;3924;48.830;9.262;2023-02-11T10:39:21;100506.44;;;5.55;68.14
7760;BME280;3924;48.830;9.262;2023-02-11T10:42:06;100507.88;;;5.64;68.13
7760;BME280;3924;48.830;9.262;2023-02-11T10:44:38;100501.22;;;5.73;67.93
7760;BME280;3924;48.830;9.262;2023-02-11T10:47:23;100486.47;;;5.83;67.99
7760;BME280;3924;48.830;9.262;2023-02-11T10:49:50;100479.41;;;5.95;67.68
7760;BME280;3924;48.830;9.262;2023-02-11T10:52:22;100466.38;;;5.98;67.32
7760;BME280;3924;48.830;9.262;2023-02-11T10:55:18;100474.97;;;6.14;67.26
7760;BME280;3924;48.830;9.262;2023-02-11T10:58:00;100463.72;;;6.23;66.99
7760;BME280;3924;48.830;9.262;2023-02-11T11:00:35;100463.63;;;6.37;66.71
7760;BME280;3924;48.830;9.262;2023-02-11T11:03:28;100445.78;;;6.42;66.64
7760;BME280;3924;48.830;9.262;2023-02-11T11:08:39;100452.56;;;6.76;65.93
7760;BME280;3924;48.830;9.262;2023-02-11T11:11:09;100443.13;;;6.85;65.62
7760;BME280;3924;48.830;9.262;2023-02-11T11:13:38;100441.19;;;6.93;65.75
7760;BME280;3924;48.830;9.262;2023-02-11T11:18:50;100442.34;;;7.03;65.70
7760;BME280;3924;48.830;9.262;2023-02-11T11:21:25;100448.91;;;7.14;65.16
7760;BME280;3924;48.830;9.262;2023-02-11T11:23:56;100442.44;;;7.33;65.01
7760;BME280;3924;48.830;9.262;2023-02-11T11:26:27;100453.09;;;7.47;64.82
7760;BME280;3924;48.830;9.262;2023-02-11T11:28:59;100441.25;;;7.48;64.92
7760;BME280;3924;48.830;9.262;2023-02-11T11:31:29;100448.00;;;7.57;64.38
7760;BME280;3924;48.830;9.262;2023-02-11T11:33:59;100441.72;;;7.63;64.38
7760;BME280;3924;48.830;9.262;2023-02-11T11:36:37;100442.56;;;7.75;64.07
7760;BME280;3924;48.830;9.262;2023-02-11T11:39:31;100437.94;;;7.82;64.24
7760;BME280;3924;48.830;9.262;2023-02-11T11:42:01;100443.03;;;7.90;63.71
7760;BME280;3924;48.830;9.262;2023-02-11T11:44:33;100447.06;;;7.81;63.80
7760;BME280;3924;48.830;9.262;2023-02-11T11:54:37;100427.03;;;8.61;62.31
7760;BME280;3924;48.830;9.262;2023-02-11T11:57:17;100426.94;;;8.79;61.94
7760;BME280;3924;48.830;9.262;2023-02-11T11:59:47;100432.22;;;8.97;61.82
7760;BME280;3924;48.830;9.262;2023-02-11T12:05:21;100436.56;;;8.98;61.37
7760;BME280;3924;48.830;9.262;2023-02-11T12:08:02;100436.69;;;8.80;62.18
7760;BME280;3924;48.830;9.262;2023-02-11T12:10:51;100421.50;;;8.67;62.61
7760;BME280;3924;48.830;9.262;2023-02-11T12:16:03;100418.94;;;8.72;61.52
7760;BME280;3924;48.830;9.262;2023-02-11T12:21:54;100427.75;;;8.80;61.79
7760;BME280;3924;48.830;9.262;2023-02-11T12:24:51;100430.44;;;8.68;62.69
7760;BME280;3924;48.830;9.262;2023-02-11T12:27:24;100431.81;;;8.47;62.15
7760;BME280;3924;48.830;9.262;2023-02-11T12:30:17;100429.88;;;8.24;62.84
7760;BME280;3924;48.830;9.262;2023-02-11T12:35:37;100430.19;;;8.16;62.75
7760;BME280;3924;48.830;9.262;2023-02-11T12:38:48;100430.19;;;8.16;63.47
7760;BME280;3924;48.830;9.262;2023-02-11T12:41:29;100432.66;;;8.17;63.04
7760;BME280;3924;48.830;9.262;2023-02-11T12:47:32;100428.59;;;7.97;63.54
7760;BME280;3924;48.830;9.262;2023-02-11T12:50:32;100442.41;;;7.88;63.58
7760;BME280;3924;48.830;9.262;2023-02-11T12:56:04;100420.97;;;7.75;64.26
7760;BME280;3924;48.830;9.262;2023-02-11T12:58:35;100422.50;;;7.71;63.64
7760;BME280;3924;48.830;9.262;2023-02-11T13:01:41;100415.31;;;7.65;64.44
7760;BME280;3924;48.830;9.262;2023-02-11T13:04:20;100406.00;;;7.61;64.10
7760;BME280;3924;48.830;9.262;2023-02-11T13:07:02;100390.84;;;7.78;63.86
7760;BME280;3924;48.830;9.262;2023-02-11T13:09:50;100390.56;;;7.98;63.88
7760;BME280;3924;48.830;9.262;2023-02-11T13:12:17;100391.81;;;7.95;63.39
7760;BME280;3924;48.830;9.262;2023-02-11T13:15:06;100397.50;;;8.06;63.03
7760;BME280;3924;48.830;9.262;2023-02-11T13:17:43;100390.66;;;7.91;63.91
7760;BME280;3924;48.830;9.262;2023-02-11T13:20:24;100383.19;;;7.75;64.24
7760;BME280;3924;48.830;9.262;2023-02-11T13:23:24;100382.91;;;7.65;64.27
7760;BME280;3924;48.830;9.262;2023-02-11T13:26:04;100375.47;;;7.79;64.09
7760;BME280;3924;48.830;9.262;2023-02-11T13:28:56;100383.66;;;8.14;63.55
7760;BME280;3924;48.830;9.262;2023-02-11T13:31:26;100387.88;;;8.40;62.65
7760;BME280;3924;48.830;9.262;2023-02-11T13:33:55;100392.94;;;8.60;62.85
7760;BME280;3924;48.830;9.262;2023-02-11T13:36:24;100393.31;;;8.75;62.60
7760;BME280;3924;48.830;9.262;2023-02-11T13:38:57;100393.06;;;8.76;62.39
7760;BME280;3924;48.830;9.262;2023-02-11T13:41:31;100384.72;;;8.78;62.86
7760;BME280;3924;48.830;9.262;2023-02-11T13:46:57;100394.59;;;8.84;62.02
7760;BME280;3924;48.830;9.262;2023-02-11T13:49:34;100388.72;;;8.87;62.32
7760;BME280;3924;48.830;9.262;2023-02-11T13:52:05;100386.25;;;8.86;62.94
7760;BME280;3924;48.830;9.262;2023-02-11T13:54:47;100388.22;;;8.90;63.14
7760;BME280;3924;48.830;9.262;2023-02-11T13:59:50;100375.41;;;8.97;62.40
7760;BME280;3924;48.830;9.262;2023-02-11T14:02:33;100378.03;;;8.92;62.60
7760;BME280;3924;48.830;9.262;2023-02-11T14:05:26;100369.31;;;8.90;62.26
7760;BME280;3924;48.830;9.262;2023-02-11T14:08:15;100377.28;;;8.97;62.55
7760;BME280;3924;48.830;9.262;2023-02-11T14:16:22;100375.19;;;8.75;63.06
7760;BME280;3924;48.830;9.262;2023-02-11T14:19:03;100369.78;;;8.75;63.23
7760;BME280;3924;48.830;9.262;2023-02-11T14:21:35;100370.16;;;8.67;63.08
7760;BME280;3924;48.830;9.262;2023-02-11T14:26:50;100367.44;;;8.56;nan
7760;BME280;3924;48.830;9.262;2023-02-11T14:29:30;100372.72;;;8.50;63.18
7760;BME280;3924;48.830;9.262;2023-02-11T14:35:35;100379.78;;;8.52;62.89
7760;BME280;3924;48.830;9.262;2023-02-11T14:38:30;100375.09;;;8.59;62.73
7760;BME280;3924;48.830;9.262;2023-02-11T14:41:12;100375.78;;;8.66;63.43
7760;BME280;3924;48.830;9.262;2023-02-11T14:43:44;100378.25;;;8.67;62.64
7760;BME280;3924;48.830;9.262;2023-02-11T14:46:18;100378.38;;;8.61;62.99
7760;BME280;3924;48.830;9.262;2023-02-11T14:48:48;100390.59;;;8.52;63.90
7760;BME280;3924;48.830;9.262;2023-02-11T14:53:50;100381.81;;;8.26;63.90
7760;BME280;3924;48.830;9.262;2023-02-11T14:56:18;100383.69;;;8.26;64.00
7760;BME280;3924;48.830;9.262;2023-02-11T14:58:49;100386.84;;;8.22;63.75
7760;BME280;3924;48.830;9.262;2023-02-11T15:01:27;100395.19;;;8.21;63.94
7760;BME280;3924;48.830;9.262;2023-02-11T15:03:58;100398.97;;;8.20;63.81
7760;BME280;3924;48.830;9.262;2023-02-11T15:06:30;100399.06;;;8.13;64.14
7760;BME280;3924;48.830;9.262;2023-02-11T15:09:05;100396.31;;;8.02;64.21
7760;BME280;3924;48.830;9.262;2023-02-11T15:11:39;100396.50;;;7.88;64.20